Time;durP1;ratioP1;P1;durP2;ratioP2;P2;SDS_P1;SDS_P2;PMS_P1;PMS_P2;Temp;Humidity;BMP_temperature;BMP_pressure;BME280_temperature;BME280_humidity;BME280_pressure;Samples;Min_cycle;Max_cycle;Signal;HPM_P1;HPM_P2
2023/08/26 00:02:34;;;;;;;;;;;;;;;15.00;100.00;100822.97;4939244;28;20026;-81
2023/08/26 00:05:19;;;;;;;;;;;;;;;14.98;100.00;100821.38;4923550;28;20020;-80
2023/08/26 00:08:05;;;;;;;;;;;;;;;14.95;100.00;100825.09;4921546;28;20028;-81
2023/08/26 00:10:51;;;;;;;;;;;;;;;14.93;100.00;100824.34;4926065;28;19930;-80
2023/08/26 00:13:39;;;;;;;;;;;;;;;14.91;100.00;100819.09;4923512;28;20820;-82
2023/08/26 00:16:24;;;;;;;;;;;;;;;14.89;100.00;100820.16;4912276;28;20476;-81
2023/08/26 00:19:10;;;;;;;;;;;;;;;14.86;100.00;100815.88;4912557;28;20463;-81
2023/08/26 00:21:56;;;;;;;;;;;;;;;14.82;100.00;100817.00;4926591;28;19942;-82
2023/08/26 00:24:41;;;;;;;;;;;;;;;14.81;100.00;100820.63;4923003;28;19953;-81
2023/08/26 00:27:27;;;;;;;;;;;;;;;14.79;100.00;100815.41;4928225;28;20533;-81
2023/08/26 00:30:13;;;;;;;;;;;;;;;14.76;100.00;100820.09;4936625;28;20013;-81
2023/08/26 00:32:59;;;;;;;;;;;;;;;14.72;100.00;100813.19;4926157;28;19937;-81
2023/08/26 00:35:45;;;;;;;;;;;;;;;14.70;100.00;100818.63;4936738;28;19980;-81
2023/08/26 00:38:30;;;;;;;;;;;;;;;14.69;100.00;100824.91;4922102;28;19941;-82
2023/08/26 00:41:16;;;;;;;;;;;;;;;14.66;100.00;100814.44;4919449;28;19949;-81
2023/08/26 00:44:02;;;;;;;;;;;;;;;14.64;100.00;100819.88;4921471;28;20370;-82
2023/08/26 00:46:48;;;;;;;;;;;;;;;14.61;100.00;100816.53;4923594;28;19952;-82
2023/08/26 00:49:34;;;;;;;;;;;;;;;14.59;100.00;100815.78;4925557;28;19926;-82
2023/08/26 00:52:19;;;;;;;;;;;;;;;14.56;100.00;100814.16;4938865;28;19980;-81
2023/08/26 00:55:05;;;;;;;;;;;;;;;14.52;100.00;100808.19;4934093;28;20409;-82
2023/08/26 00:57:51;;;;;;;;;;;;;;;14.49;100.00;100808.34;4939903;28;19931;-80
2023/08/26 01:00:37;;;;;;;;;;;;;;;14.47;100.00;100810.28;4925789;28;20029;-81
2023/08/26 01:03:22;;;;;;;;;;;;;;;14.43;100.00;100808.75;4938989;28;19937;-81
2023/08/26 01:06:08;;;;;;;;;;;;;;;14.39;100.00;100807.25;4937771;28;20385;-81
2023/08/26 01:08:54;;;;;;;;;;;;;;;14.32;100.00;100806.75;4925394;28;19927;-82
2023/08/26 01:11:40;;;;;;;;;;;;;;;14.28;100.00;100802.59;4939062;28;19926;-80
2023/08/26 01:14:34;;;;;;;;;;;;;;;14.23;100.00;100813.50;4942694;28;20029;-81
2023/08/26 01:17:19;;;;;;;;;;;;;;;14.18;100.00;100809.41;4937199;28;20343;-81
2023/08/26 01:20:06;;;;;;;;;;;;;;;14.12;100.00;100805.31;4925627;28;19933;-81
2023/08/26 01:22:51;;;;;;;;;;;;;;;14.10;100.00;100807.19;4927649;28;20424;-80
2023/08/26 01:25:37;;;;;;;;;;;;;;;14.06;100.00;100805.69;4926869;28;19938;-81
2023/08/26 01:28:22;;;;;;;;;;;;;;;14.01;100.00;100802.44;4940631;28;20405;-81
2023/08/26 01:31:09;;;;;;;;;;;;;;;13.97;100.00;100807.97;4927764;28;20389;-81
2023/08/26 01:33:58;;;;;;;;;;;;;;;13.94;100.00;100804.63;4937166;28;20050;-81
2023/08/26 01:36:44;;;;;;;;;;;;;;;13.91;100.00;100813.66;4961075;28;20028;-81
2023/08/26 01:39:29;;;;;;;;;;;;;;;13.86;100.00;100810.41;4925384;28;20356;-81
2023/08/26 01:42:17;;;;;;;;;;;;;;;13.80;100.00;100822.28;4937227;28;19930;-81
2023/08/26 01:45:06;;;;;;;;;;;;;;;13.74;100.00;100813.81;4926197;28;19966;-81
2023/08/26 01:47:51;;;;;;;;;;;;;;;13.68;100.00;100813.22;4939738;28;20358;-81
2023/08/26 01:50:37;;;;;;;;;;;;;;;13.64;100.00;100819.69;4925979;28;20656;-80
2023/08/26 01:53:23;;;;;;;;;;;;;;;13.60;100.00;100820.78;4963211;28;19969;-81
2023/08/26 01:56:11;;;;;;;;;;;;;;;13.56;100.00;100811.25;4923866;28;19941;-81
2023/08/26 01:59:00;;;;;;;;;;;;;;;13.52;100.00;100802.59;4939111;28;20060;-81
2023/08/26 02:01:45;;;;;;;;;;;;;;;13.50;100.00;100809.00;4921995;28;20271;-81
2023/08/26 02:04:31;;;;;;;;;;;;;;;13.47;100.00;100815.34;4927884;28;19931;-81
2023/08/26 02:07:17;;;;;;;;;;;;;;;13.46;100.00;100821.63;4922559;28;19938;-81
2023/08/26 02:10:02;;;;;;;;;;;;;;;13.40;100.00;100817.44;4924114;28;20040;-81
2023/08/26 02:12:48;;;;;;;;;;;;;;;13.37;100.00;100820.31;4911979;28;19945;-82
2023/08/26 02:15:34;;;;;;;;;;;;;;;13.35;100.00;100821.34;4922955;28;19974;-81
2023/08/26 02:18:20;;;;;;;;;;;;;;;13.33;100.00;100817.91;4925076;28;19941;-81
2023/08/26 02:21:06;;;;;;;;;;;;;;;13.30;100.00;100818.94;4925964;28;20391;-81
2023/08/26 02:23:52;;;;;;;;;;;;;;;13.26;100.00;100812.09;4926290;28;19935;-81
2023/08/26 02:26:37;;;;;;;;;;;;;;;13.24;100.00;100812.16;4924983;28;19934;-81
2023/08/26 02:29:23;;;;;;;;;;;;;;;13.23;100.00;100812.28;4926633;28;19981;-81
2023/08/26 02:32:09;;;;;;;;;;;;;;;13.18;100.00;100810.72;4922714;28;20389;-82
2023/08/26 02:34:54;;;;;;;;;;;;;;;13.18;100.00;100810.72;4935263;28;19954;-81
2023/08/26 02:37:40;;;;;;;;;;;;;;;13.16;100.00;100804.63;4926049;28;19931;-82
2023/08/26 02:40:26;;;;;;;;;;;;;;;13.12;100.00;100811.06;4934298;28;19937;-81
2023/08/26 02:43:11;;;;;;;;;;;;;;;13.09;100.00;100811.25;4928065;28;19937;-82
2023/08/26 02:46:00;;;;;;;;;;;;;;;13.09;100.00;100813.91;4923452;28;20378;-80
2023/08/26 02:48:46;;;;;;;;;;;;;;;13.03;100.00;100812.44;4937477;28;19926;-81
2023/08/26 02:51:31;;;;;;;;;;;;;;;13.00;100.00;100809.09;4940645;28;20739;-81
2023/08/26 02:54:17;;;;;;;;;;;;;;;12.98;100.00;100808.34;4926713;28;19954;-82
2023/08/26 02:57:03;;;;;;;;;;;;;;;12.97;100.00;100807.47;4934646;28;19930;-82
2023/08/26 02:59:49;;;;;;;;;;;;;;;12.96;100.00;100803.09;4914647;28;19937;-81
2023/08/26 03:02:35;;;;;;;;;;;;;;;12.96;100.00;100796.94;4939025;28;21440;-82
2023/08/26 03:05:20;;;;;;;;;;;;;;;12.97;100.00;100790.69;5015387;28;19947;-81
2023/08/26 03:08:07;;;;;;;;;;;;;;;12.98;100.00;100792.38;5021896;28;19936;-81
2023/08/26 03:10:59;;;;;;;;;;;;;;;13.02;100.00;100793.94;5017608;28;19925;-81
2023/08/26 03:13:45;;;;;;;;;;;;;;;13.08;100.00;100785.59;5031993;28;19933;-81
2023/08/26 03:16:31;;;;;;;;;;;;;;;13.13;100.00;100780.88;5018973;28;19971;-80
2023/08/26 03:19:17;;;;;;;;;;;;;;;13.20;100.00;100786.72;5019933;28;20391;-82
2023/08/26 03:22:02;;;;;;;;;;;;;;;13.25;100.00;100781.13;5020591;28;20011;-82
2023/08/26 03:24:51;;;;;;;;;;;;;;;13.29;100.00;100772.88;4994575;28;19929;-81
2023/08/26 03:27:36;;;;;;;;;;;;;;;13.34;100.00;100783.25;5038517;28;20383;-82
2023/08/26 03:30:22;;;;;;;;;;;;;;;13.39;100.00;100782.97;5026318;28;19928;-82
2023/08/26 03:33:10;;;;;;;;;;;;;;;13.42;100.00;100780.97;5021726;28;20365;-82
2023/08/26 03:35:56;;;;;;;;;;;;;;;13.46;100.00;100781.72;5013105;28;19928;-82
2023/08/26 03:38:42;;;;;;;;;;;;;;;13.52;100.00;100775.19;5024470;28;20414;-81
2023/08/26 03:41:27;;;;;;;;;;;;;;;13.55;100.00;100769.66;5010664;28;19929;-82
2023/08/26 03:44:13;;;;;;;;;;;;;;;13.57;100.00;100776.59;5021544;28;19978;-80
2023/08/26 03:46:59;;;;;;;;;;;;;;;13.61;100.00;100763.16;5035118;28;19951;-81
2023/08/26 03:49:44;;;;;;;;;;;;;;;13.66;100.00;100761.91;5016637;28;19928;-80
2023/08/26 03:52:30;;;;;;;;;;;;;;;13.70;100.00;100768.78;5017536;28;19936;-81
2023/08/26 03:55:16;;;;;;;;;;;;;;;13.75;100.00;100763.16;5023463;28;19929;-81
2023/08/26 03:58:01;;;;;;;;;;;;;;;13.75;100.00;100770.28;5021286;28;19939;-81
2023/08/26 04:00:47;;;;;;;;;;;;;;;13.76;100.00;100779.97;5020733;28;19932;-81
2023/08/26 04:03:33;;;;;;;;;;;;;;;13.76;100.00;100785.28;5017655;28;19944;-81
2023/08/26 04:06:19;;;;;;;;;;;;;;;13.79;100.00;100785.13;5010504;28;19933;-80
2023/08/26 04:09:05;;;;;;;;;;;;;;;13.81;100.00;100785.88;5021394;28;19929;-81
2023/08/26 04:11:50;;;;;;;;;;;;;;;13.84;100.00;100791.88;5013299;28;20011;-81
2023/08/26 04:14:36;;;;;;;;;;;;;;;13.87;100.00;100790.84;5020367;28;19976;-81
2023/08/26 04:17:22;;;;;;;;;;;;;;;13.89;100.00;100804.06;5016149;28;19928;-81
2023/08/26 04:20:08;;;;;;;;;;;;;;;13.90;100.00;100795.13;5020411;28;19925;-81
2023/08/26 04:22:54;;;;;;;;;;;;;;;13.91;100.00;100792.38;5017335;28;20023;-81
2023/08/26 04:25:40;;;;;;;;;;;;;;;13.92;100.00;100783.44;5018734;28;19933;-82
2023/08/26 04:28:26;;;;;;;;;;;;;;;13.95;100.00;100782.41;5031975;28;20370;-81
2023/08/26 04:31:12;;;;;;;;;;;;;;;13.96;100.00;100787.59;5017944;28;19929;-81
2023/08/26 04:33:57;;;;;;;;;;;;;;;13.95;100.00;100783.22;5021400;28;19928;-81
2023/08/26 04:36:43;;;;;;;;;;;;;;;13.94;100.00;100791.34;5031707;28;19955;-81
2023/08/26 04:39:29;;;;;;;;;;;;;;;13.91;100.00;100789.72;5023266;28;19936;-81
2023/08/26 04:42:14;;;;;;;;;;;;;;;13.89;100.00;100786.25;5024189;28;20016;-81
2023/08/26 04:45:00;;;;;;;;;;;;;;;13.85;100.00;100782.09;5024809;28;20455;-81
2023/08/26 04:47:46;;;;;;;;;;;;;;;13.84;100.00;100785.72;5021727;28;20007;-82
2023/08/26 04:50:32;;;;;;;;;;;;;;;13.81;100.00;100788.53;5024555;28;20659;-81
2023/08/26 04:53:17;;;;;;;;;;;;;;;13.79;100.00;100793.09;5026627;28;19933;-81
2023/08/26 04:56:03;;;;;;;;;;;;;;;13.79;100.00;100788.63;5017046;28;19948;-81
2023/08/26 04:58:49;;;;;;;;;;;;;;;13.80;100.00;100797.47;5022850;28;19936;-81
2023/08/26 05:01:34;;;;;;;;;;;;;;;13.80;100.00;100794.81;5023882;28;20050;-81
2023/08/26 05:04:20;;;;;;;;;;;;;;;13.79;100.00;100803.75;5010708;28;20379;-81
2023/08/26 05:07:06;;;;;;;;;;;;;;;13.76;100.00;100806.56;5024624;28;19924;-81
2023/08/26 05:09:51;;;;;;;;;;;;;;;13.77;100.00;100805.66;5019734;28;20656;-81
2023/08/26 05:12:37;;;;;;;;;;;;;;;13.78;100.00;100797.56;5021361;28;19972;-82
2023/08/26 05:15:23;;;;;;;;;;;;;;;13.81;100.00;100796.53;5022468;28;19933;-81
2023/08/26 05:18:08;;;;;;;;;;;;;;;13.83;100.00;100794.63;5021610;28;20016;-81
2023/08/26 05:20:54;;;;;;;;;;;;;;;13.86;100.00;100805.09;5024749;28;19929;-81
2023/08/26 05:23:40;;;;;;;;;;;;;;;13.88;100.00;100811.16;5022976;28;19929;-81
2023/08/26 05:26:26;;;;;;;;;;;;;;;13.91;100.00;100808.34;5021417;28;20364;-81
2023/08/26 05:29:11;;;;;;;;;;;;;;;13.95;100.00;100801.88;5023430;28;20383;-81
2023/08/26 05:31:57;;;;;;;;;;;;;;;13.99;100.00;100810.53;5021146;28;20383;-81
2023/08/26 05:34:43;;;;;;;;;;;;;;;14.01;100.00;100818.41;5025074;28;19944;-81
2023/08/26 05:37:28;;;;;;;;;;;;;;;14.02;100.00;100821.00;5024619;28;19929;-81
2023/08/26 05:40:14;;;;;;;;;;;;;;;14.05;100.00;100820.78;5034537;28;19929;-81
2023/08/26 05:43:00;;;;;;;;;;;;;;;14.06;100.00;100821.66;5034568;28;19979;-81
2023/08/26 05:45:46;;;;;;;;;;;;;;;14.07;100.00;100812.72;5020496;28;19937;-82
2023/08/26 05:48:31;;;;;;;;;;;;;;;14.06;100.00;100824.31;5026545;28;19982;-81
2023/08/26 05:51:17;;;;;;;;;;;;;;;14.05;100.00;100819.97;5024579;28;20904;-81
2023/08/26 05:54:03;;;;;;;;;;;;;;;14.07;100.00;100823.38;5029950;28;20425;-81
2023/08/26 05:56:48;;;;;;;;;;;;;;;14.09;100.00;100818.81;5023559;28;20299;-81
2023/08/26 05:59:34;;;;;;;;;;;;;;;14.14;100.00;100832.69;5021900;28;19932;-81
2023/08/26 06:02:20;;;;;;;;;;;;;;;14.18;100.00;100830.72;5020810;28;19978;-81
2023/08/26 06:05:05;;;;;;;;;;;;;;;14.25;100.00;100843.56;5033723;28;19964;-81
2023/08/26 06:07:51;;;;;;;;;;;;;;;14.30;100.00;100845.06;5020444;28;20036;-81
2023/08/26 06:10:37;;;;;;;;;;;;;;;14.35;100.00;100848.31;5019387;28;19933;-80
2023/08/26 06:13:23;;;;;;;;;;;;;;;14.38;100.00;100845.44;4949193;28;21953;-81
2023/08/26 06:16:08;;;;;;;;;;;;;;;14.43;100.00;100851.34;5014995;28;19963;-81
2023/08/26 06:18:54;;;;;;;;;;;;;;;14.49;100.00;100850.97;5022606;28;20406;-81
2023/08/26 06:21:40;;;;;;;;;;;;;;;14.54;100.00;100848.03;5034893;28;19944;-81
2023/08/26 06:24:26;;;;;;;;;;;;;;;14.60;100.00;100850.31;5021385;28;19975;-81
2023/08/26 06:27:11;;;;;;;;;;;;;;;14.62;100.00;100851.09;5022477;28;20376;-81
2023/08/26 06:30:03;;;;;;;;;;;;;;;14.66;100.00;100855.25;5019469;28;19933;-81
2023/08/26 06:32:49;;;;;;;;;;;;;;;14.70;100.00;100852.41;5020935;28;20006;-82
2023/08/26 06:35:35;;;;;;;;;;;;;;;14.70;100.00;100850.59;5021043;28;20023;-81
2023/08/26 06:38:21;;;;;;;;;;;;;;;14.70;100.00;100847.91;5033112;28;19967;-82
2023/08/26 06:41:07;;;;;;;;;;;;;;;14.73;100.00;100852.22;5033716;28;19929;-82
2023/08/26 06:43:52;;;;;;;;;;;;;;;14.74;100.00;100859.28;5020024;28;19956;-82
2023/08/26 06:46:40;;;;;;;;;;;;;;;14.78;100.00;100860.81;5021262;28;20213;-81
2023/08/26 06:49:25;;;;;;;;;;;;;;;14.81;100.00;100857.94;5028242;28;20070;-82
2023/08/26 06:52:11;;;;;;;;;;;;;;;14.88;100.00;100861.91;5024365;28;20302;-82
2023/08/26 06:54:57;;;;;;;;;;;;;;;14.98;100.00;100846.19;5025420;28;21467;-82
2023/08/26 06:57:42;;;;;;;;;;;;;;;15.07;100.00;100837.63;5022955;28;19929;-82
2023/08/26 07:00:28;;;;;;;;;;;;;;;15.24;100.00;100838.31;5022514;28;19925;-82
2023/08/26 07:03:14;;;;;;;;;;;;;;;15.41;100.00;100836.38;5029711;28;20658;-82
2023/08/26 07:05:59;;;;;;;;;;;;;;;15.63;100.00;100845.63;5019644;28;20364;-81
2023/08/26 07:08:45;;;;;;;;;;;;;;;15.88;100.00;100843.00;5024180;28;20372;-81
2023/08/26 07:11:31;;;;;;;;;;;;;;;16.14;100.00;100843.03;5010105;28;20861;-80
2023/08/26 07:14:16;;;;;;;;;;;;;;;16.36;100.00;100840.69;5026476;28;19932;-80
2023/08/26 07:17:02;;;;;;;;;;;;;;;16.56;100.00;100839.28;5025738;28;20295;-84
2023/08/26 07:19:54;;;;;;;;;;;;;;;16.76;100.00;100843.22;5012188;28;20399;-84
2023/08/26 07:22:40;;;;;;;;;;;;;;;17.00;100.00;100846.91;5025018;28;19969;-85
2023/08/26 07:25:25;;;;;;;;;;;;;;;17.23;100.00;100845.25;5021531;28;19940;-86
2023/08/26 07:28:11;;;;;;;;;;;;;;;17.46;100.00;100832.84;5035904;28;19933;-87
2023/08/26 07:31:01;;;;;;;;;;;;;;;17.64;100.00;100843.13;4913049;28;20393;-85
2023/08/26 07:33:47;;;;;;;;;;;;;;;17.71;100.00;100840.84;4928643;28;20165;-83
2023/08/26 07:36:32;;;;;;;;;;;;;;;17.70;100.00;100839.97;5020116;28;19924;-82
2023/08/26 07:39:18;;;;;;;;;;;;;;;17.75;100.00;100848.53;5011203;28;21625;-83
2023/08/26 07:42:04;;;;;;;;;;;;;;;17.80;100.00;100848.16;5021669;28;20009;-83
2023/08/26 07:44:50;;;;;;;;;;;;;;;17.87;100.00;100853.91;5019558;28;19929;-82
2023/08/26 07:47:35;;;;;;;;;;;;;;;17.87;100.00;100856.59;5031698;28;20102;-82
2023/08/26 07:50:21;;;;;;;;;;;;;;;17.90;100.00;100853.66;5020593;28;19960;-82
2023/08/26 07:53:07;;;;;;;;;;;;;;;17.99;100.00;100858.34;5019251;28;20067;-82
2023/08/26 07:55:52;;;;;;;;;;;;;;;18.04;100.00;100857.97;4998066;28;20074;-84
2023/08/26 07:58:38;;;;;;;;;;;;;;;18.01;100.00;100861.75;5032729;28;20348;-82
2023/08/26 08:01:24;;;;;;;;;;;;;;;18.01;100.00;100858.19;5012145;28;19925;-83
2023/08/26 08:04:09;;;;;;;;;;;;;;;18.02;100.00;100862.56;5022598;28;20260;-84
2023/08/26 08:06:58;;;;;;;;;;;;;;;18.03;100.00;100861.63;5026534;28;20626;-83
2023/08/26 08:09:43;;;;;;;;;;;;;;;18.04;100.00;100861.50;5020445;28;19936;-84
2023/08/26 08:12:29;;;;;;;;;;;;;;;18.19;100.00;100861.31;5041566;27;19933;-83
2023/08/26 08:15:15;;;;;;;;;;;;;;;18.29;100.00;100870.34;5021784;28;19940;-82
2023/08/26 08:18:02;;;;;;;;;;;;;;;18.24;100.00;100864.50;5020800;28;19975;-80
2023/08/26 08:20:47;;;;;;;;;;;;;;;18.05;100.00;100868.59;5021568;28;19931;-78
2023/08/26 08:23:33;;;;;;;;;;;;;;;17.90;100.00;100859.03;5002781;28;20312;-81
2023/08/26 08:26:19;;;;;;;;;;;;;;;17.80;100.00;100868.75;5016857;28;19994;-81
2023/08/26 08:29:04;;;;;;;;;;;;;;;17.94;100.00;100862.31;5022515;28;20038;-80
2023/08/26 08:31:50;;;;;;;;;;;;;;;18.12;100.00;100871.66;5035945;28;19986;-81
2023/08/26 08:34:35;;;;;;;;;;;;;;;18.21;100.00;100870.09;5022666;28;19933;-79
2023/08/26 08:37:21;;;;;;;;;;;;;;;18.34;100.00;100861.13;5024532;28;19937;-81
2023/08/26 08:40:07;;;;;;;;;;;;;;;18.59;100.00;100868.91;5015677;28;19964;-80
2023/08/26 08:42:53;;;;;;;;;;;;;;;18.78;100.00;100872.81;5035381;28;19933;-79
2023/08/26 08:45:38;;;;;;;;;;;;;;;18.92;100.00;100869.03;5006606;28;20015;-80
2023/08/26 08:48:24;;;;;;;;;;;;;;;18.94;100.00;100874.25;5020212;28;20016;-79
2023/08/26 08:51:10;;;;;;;;;;;;;;;18.93;100.00;100876.09;5040178;28;19931;-80
2023/08/26 08:53:55;;;;;;;;;;;;;;;18.87;100.00;100872.06;5040086;28;19924;-80
2023/08/26 08:56:41;;;;;;;;;;;;;;;18.72;100.00;100874.16;5041974;28;20401;-80
2023/08/26 08:59:27;;;;;;;;;;;;;;;18.61;100.00;100876.00;5025165;28;19932;-80
2023/08/26 09:02:12;;;;;;;;;;;;;;;18.44;100.00;100872.81;5024729;28;20416;-81
2023/08/26 09:04:58;;;;;;;;;;;;;;;18.25;100.00;100873.41;4943702;28;19930;-80
2023/08/26 09:07:44;;;;;;;;;;;;;;;18.12;100.00;100881.50;4942558;28;19937;-80
2023/08/26 09:10:29;;;;;;;;;;;;;;;17.99;100.00;100882.44;4928253;28;19934;-80
2023/08/26 09:13:15;;;;;;;;;;;;;;;17.89;100.00;100887.66;4940622;28;20897;-80
2023/08/26 09:16:01;;;;;;;;;;;;;;;17.80;100.00;100898.19;4939090;28;20190;-78
2023/08/26 09:18:46;;;;;;;;;;;;;;;17.65;100.00;100898.34;4928336;28;20105;-80
2023/08/26 09:21:32;;;;;;;;;;;;;;;17.45;100.00;100899.84;4927614;28;19980;-80
2023/08/26 09:24:17;;;;;;;;;;;;;;;17.29;100.00;100906.34;4928748;28;20056;-80
2023/08/26 09:27:09;;;;;;;;;;;;;;;17.17;100.00;100901.88;4937837;28;19931;-80
2023/08/26 09:29:57;;;;;;;;;;;;;;;17.06;100.00;100902.66;4932535;28;19934;-80
2023/08/26 09:32:45;;;;;;;;;;;;;;;17.04;100.00;100899.22;4914701;28;19937;-80
2023/08/26 09:35:31;;;;;;;;;;;;;;;17.08;100.00;100916.75;4940875;28;19941;-80
2023/08/26 09:38:16;;;;;;;;;;;;;;;17.10;100.00;100906.81;4929027;28;20559;-80
2023/08/26 09:41:02;;;;;;;;;;;;;;;17.17;100.00;100912.56;4931068;28;19926;-80
2023/08/26 09:43:48;;;;;;;;;;;;;;;17.21;100.00;100919.44;4928196;28;19935;-80
2023/08/26 09:46:35;;;;;;;;;;;;;;;17.22;100.00;100915.78;4929618;28;19980;-80
2023/08/26 09:49:21;;;;;;;;;;;;;;;17.24;100.00;100917.38;4927448;28;19935;-81
2023/08/26 09:52:06;;;;;;;;;;;;;;;17.20;100.00;100915.88;4929448;28;19934;-86
2023/08/26 09:54:53;;;;;;;;;;;;;;;17.16;100.00;100925.09;4926520;28;19981;-80
2023/08/26 09:57:43;;;;;;;;;;;;;;;17.15;100.00;100926.06;4956363;28;20009;-81
2023/08/26 10:00:31;;;;;;;;;;;;;;;17.14;100.00;100929.69;4926489;28;19927;-81
2023/08/26 10:03:00;;;;;;;;;;;;;;;17.15;100.00;100927.88;5011943;23;19986;-81
2023/08/26 10:05:46;;;;;;;;;;;;;;;17.12;100.00;100941.47;4986742;28;19993;-82
2023/08/26 10:08:33;;;;;;;;;;;;;;;17.12;100.00;100942.34;4985326;28;21841;-83
2023/08/26 10:11:18;;;;;;;;;;;;;;;17.17;100.00;100934.81;4984945;28;19934;-83
2023/08/26 10:14:04;;;;;;;;;;;;;;;17.21;100.00;100933.63;4958930;28;19979;-82
2023/08/26 10:16:51;;;;;;;;;;;;;;;17.28;100.00;100938.53;4975260;28;19961;-82
2023/08/26 10:19:39;;;;;;;;;;;;;;;17.39;100.00;100938.63;5048199;28;20475;-86
2023/08/26 10:22:28;;;;;;;;;;;;;;;17.45;100.00;100943.53;4995365;28;20010;-82
2023/08/26 10:25:14;;;;;;;;;;;;;;;17.47;100.00;100936.25;4977794;28;19929;-86
2023/08/26 10:28:03;;;;;;;;;;;;;;;17.51;100.00;100942.22;4973587;28;19926;-79
2023/08/26 10:30:50;;;;;;;;;;;;;;;17.58;100.00;100942.59;4996400;28;19937;-79
2023/08/26 10:33:54;;;;;;;;;;;;;;;17.82;100.00;100928.38;4993079;28;19990;-81
2023/08/26 10:36:41;;;;;;;;;;;;;;;18.16;100.00;100931.22;4997999;28;21506;-79
2023/08/26 10:39:27;;;;;;;;;;;;;;;18.40;100.00;100931.16;5022762;28;19933;-80
2023/08/26 10:42:13;;;;;;;;;;;;;;;18.49;100.00;100934.94;4963013;28;20050;-80
2023/08/26 10:45:01;;;;;;;;;;;;;;;18.65;100.00;100941.78;4961509;28;19941;-81
2023/08/26 10:47:52;;;;;;;;;;;;;;;18.80;100.00;100937.88;4979139;28;20026;-79
2023/08/26 10:50:37;;;;;;;;;;;;;;;18.85;100.00;100933.03;4997073;28;19930;-83
2023/08/26 10:53:29;;;;;;;;;;;;;;;18.88;100.00;100931.91;5053510;28;19979;-81
2023/08/26 10:56:15;;;;;;;;;;;;;;;18.97;100.00;100939.22;4989601;28;19925;-81
2023/08/26 10:59:01;;;;;;;;;;;;;;;18.99;100.00;100944.47;4979890;27;19973;-82
2023/08/26 11:01:47;;;;;;;;;;;;;;;18.97;100.00;100938.38;4978740;28;19930;-80
2023/08/26 11:04:42;;;;;;;;;;;;;;;18.91;100.00;100942.41;4955697;28;19929;-79
2023/08/26 11:07:28;;;;;;;;;;;;;;;19.02;100.00;100952.31;4943545;28;19935;-83
2023/08/26 11:10:25;;;;;;;;;;;;;;;19.00;100.00;100952.41;4973291;28;19925;-78
2023/08/26 11:13:11;;;;;;;;;;;;;;;19.00;100.00;100947.03;4963378;28;19930;-79
2023/08/26 11:15:57;;;;;;;;;;;;;;;19.18;100.00;100945.72;4966999;28;19937;-79
2023/08/26 11:18:46;;;;;;;;;;;;;;;19.32;100.00;100944.59;4966078;28;20017;-82
2023/08/26 11:21:34;;;;;;;;;;;;;;;19.43;100.00;100941.06;4953625;28;20029;-82
2023/08/26 11:24:28;;;;;;;;;;;;;;;19.59;100.00;100946.84;4951670;28;19937;-81
2023/08/26 11:27:13;;;;;;;;;;;;;;;19.60;100.00;100947.72;4948263;28;19930;-80
2023/08/26 11:29:59;;;;;;;;;;;;;;;19.45;100.00;100949.81;4967833;28;19930;-82
2023/08/26 11:32:48;;;;;;;;;;;;;;;19.35;100.00;100955.09;4955805;28;20457;-82
2023/08/26 11:35:35;;;;;;;;;;;;;;;19.23;100.00;100965.84;4956374;28;19979;-82
2023/08/26 11:38:24;;;;;;;;;;;;;;;19.22;100.00;100960.59;4956683;28;19926;-81
2023/08/26 11:41:33;;;;;;;;;;;;;;;19.21;100.00;100964.25;4967349;28;20067;-81
2023/08/26 11:44:19;;;;;;;;;;;;;;;19.14;100.00;100969.25;4965241;28;19936;-82
2023/08/26 11:47:08;;;;;;;;;;;;;;;19.07;100.00;100974.25;4967354;28;19976;-81
2023/08/26 11:49:54;;;;;;;;;;;;;;;18.99;100.00;100965.94;4951526;28;19930;-81
2023/08/26 11:52:41;;;;;;;;;;;;;;;18.93;100.00;100966.41;4948588;28;21899;-81
2023/08/26 11:55:28;;;;;;;;;;;;;;;18.93;100.00;100967.28;4967886;28;19940;-81
2023/08/26 11:58:13;;;;;;;;;;;;;;;18.92;100.00;100970.94;4967882;28;20484;-83
2023/08/26 12:00:59;;;;;;;;;;;;;;;18.80;100.00;100975.44;4953233;28;19968;-80
2023/08/26 12:03:48;;;;;;;;;;;;;;;18.76;100.00;100975.78;4966150;28;20145;-81
2023/08/26 12:06:37;;;;;;;;;;;;;;;18.68;100.00;100973.72;4954817;28;19925;-81
2023/08/26 12:09:22;;;;;;;;;;;;;;;18.56;100.00;100979.06;4958493;28;20600;-82
2023/08/26 12:12:08;;;;;;;;;;;;;;;18.56;100.00;100971.03;4949462;28;19969;-81
2023/08/26 12:15:06;;;;;;;;;;;;;;;18.56;100.00;100976.38;4948071;28;20272;-81
2023/08/26 12:17:54;;;;;;;;;;;;;;;18.58;100.00;100979.78;4965894;28;20189;-82
2023/08/26 12:20:46;;;;;;;;;;;;;;;18.58;100.00;100969.06;4965769;28;19937;-79
2023/08/26 12:23:35;;;;;;;;;;;;;;;18.56;100.00;100968.34;4965597;28;20542;-82
2023/08/26 12:26:21;;;;;;;;;;;;;;;18.58;100.00;100966.38;4955280;28;21744;-81
2023/08/26 12:29:10;;;;;;;;;;;;;;;18.59;100.00;100970.78;4965208;28;20288;-81
2023/08/26 12:31:55;;;;;;;;;;;;;;;18.54;100.00;100975.66;4966706;28;19929;-81
2023/08/26 12:34:44;;;;;;;;;;;;;;;18.47;100.00;100979.78;4966535;28;20463;-80
2023/08/26 12:37:32;;;;;;;;;;;;;;;18.39;100.00;100983.03;4962498;28;19952;-82
2023/08/26 12:40:18;;;;;;;;;;;;;;;18.32;100.00;100977.28;4965720;28;19945;-82
2023/08/26 12:43:04;;;;;;;;;;;;;;;18.32;100.00;100984.50;4939719;28;20022;-81
2023/08/26 12:45:50;;;;;;;;;;;;;;;18.33;100.00;100970.13;4946794;28;19940;-82
2023/08/26 12:48:36;;;;;;;;;;;;;;;18.27;100.00;100982.16;4953631;28;19929;-82
2023/08/26 12:51:23;;;;;;;;;;;;;;;18.23;100.00;100977.13;4966942;28;19963;-82
2023/08/26 12:54:12;;;;;;;;;;;;;;;18.24;100.00;100982.38;4953073;28;19922;-81
2023/08/26 12:57:00;;;;;;;;;;;;;;;18.32;100.00;100979.97;4949364;28;19933;-83
2023/08/26 12:59:46;;;;;;;;;;;;;;;18.50;100.00;100981.34;4949245;28;19930;-81
2023/08/26 13:02:32;;;;;;;;;;;;;;;18.60;100.00;100977.00;4964609;28;19937;-82
2023/08/26 13:05:17;;;;;;;;;;;;;;;18.59;100.00;100986.03;5027231;28;19960;-80
2023/08/26 13:08:03;;;;;;;;;;;;;;;18.55;100.00;100985.41;4968411;28;19930;-81
2023/08/26 13:10:49;;;;;;;;;;;;;;;18.66;100.00;100997.09;4953732;28;20017;-82
2023/08/26 13:13:35;;;;;;;;;;;;;;;18.72;100.00;100992.13;4988768;28;19930;-81
2023/08/26 13:16:20;;;;;;;;;;;;;;;18.73;100.00;100992.97;4964819;28;20025;-81
2023/08/26 13:19:06;;;;;;;;;;;;;;;18.78;100.00;100992.63;4967059;28;19930;-81
2023/08/26 13:21:53;;;;;;;;;;;;;;;18.89;100.00;100992.63;4954170;27;19937;-81
2023/08/26 13:24:40;;;;;;;;;;;;;;;19.01;100.00;100993.47;4959123;28;19930;-82
2023/08/26 13:27:25;;;;;;;;;;;;;;;19.03;98.26;100978.19;4968089;28;19930;-82
2023/08/26 13:30:12;;;;;;;;;;;;;;;19.11;100.00;100983.78;4967780;28;19941;-81
2023/08/26 13:32:58;;;;;;;;;;;;;;;19.25;100.00;100981.81;4970772;28;20308;-80
2023/08/26 13:35:44;;;;;;;;;;;;;;;19.27;94.65;100985.22;4961217;28;20019;-80
2023/08/26 13:38:29;;;;;;;;;;;;;;;19.27;99.32;100975.34;5001637;28;19930;-83
2023/08/26 13:41:15;;;;;;;;;;;;;;;19.36;100.00;100984.50;4966538;28;20412;-80
2023/08/26 13:44:01;;;;;;;;;;;;;;;19.45;100.00;100971.31;4966961;28;20622;-81
2023/08/26 13:46:46;;;;;;;;;;;;;;;19.52;100.00;100975.19;4966763;28;20025;-82
2023/08/26 13:49:35;;;;;;;;;;;;;;;19.63;100.00;100971.63;4949090;28;20003;-81
2023/08/26 13:52:21;;;;;;;;;;;;;;;19.78;100.00;100974.88;4970038;28;19940;-82
2023/08/26 13:55:07;;;;;;;;;;;;;;;19.84;100.00;100971.69;4956368;28;19933;-83
2023/08/26 13:57:53;;;;;;;;;;;;;;;19.94;98.42;100972.63;4967798;28;20017;-81
2023/08/26 14:00:38;;;;;;;;;;;;;;;20.02;100.00;100972.03;4967658;28;20479;-81
2023/08/26 14:03:28;;;;;;;;;;;;;;;20.10;98.02;100974.03;4967182;28;20004;-81
2023/08/26 14:06:13;;;;;;;;;;;;;;;20.10;93.48;100975.91;4953341;28;20021;-81